createdAt,value
2022-11-24T00:01:06.191Z,93980.09
2022-11-24T00:04:09.287Z,93974.75
2022-11-24T00:07:12.336Z,93977.41
2022-11-24T00:10:15.441Z,93972.09
2022-11-24T00:13:19.882Z,93973.19
2022-11-24T00:16:24.320Z,93975.88
2022-11-24T00:19:27.336Z,93991.84
2022-11-24T00:22:30.378Z,93994.50
2022-11-24T00:25:33.594Z,93998.72
2022-11-24T00:28:38.814Z,93990.72
2022-11-24T00:31:43.273Z,94001.72
2022-11-24T00:34:46.276Z,94003.28
2022-11-24T00:37:49.276Z,94001.38
2022-11-24T00:40:52.950Z,94004.03
2022-11-24T00:43:58.082Z,94006.72
2022-11-24T00:47:01.152Z,94001.38
2022-11-24T00:50:04.474Z,94001.38
2022-11-24T00:53:07.680Z,94011.59
2022-11-24T00:56:11.683Z,94007.03
2022-11-24T00:59:16.148Z,94006.72
2022-11-24T01:02:19.202Z,94014.25
2022-11-24T01:05:22.243Z,94012.38
2022-11-24T01:08:25.279Z,94013.16
2022-11-24T01:11:29.975Z,94012.69
2022-11-24T01:14:34.560Z,94015.34
2022-11-24T01:17:37.768Z,94007.38
2022-11-24T01:20:40.714Z,94007.38
2022-11-24T01:23:43.849Z,94007.38
2022-11-24T01:26:47.014Z,94008.47
2022-11-24T01:29:51.393Z,94006.59
2022-11-24T01:32:54.421Z,94002.38
2022-11-24T01:35:58.534Z,93990.16
2022-11-24T01:39:01.639Z,93996.72
2022-11-24T01:42:04.884Z,94001.59
2022-11-24T01:45:41.748Z,94006.16
2022-11-24T01:48:49.341Z,94003.47
2022-11-24T01:51:56.369Z,94014.13
2022-11-24T01:55:03.227Z,94005.38
2022-11-24T01:58:09.126Z,94005.38
2022-11-24T02:01:14.435Z,94016.81
2022-11-24T02:04:21.002Z,94012.59
2022-11-24T02:07:24.223Z,94002.72
2022-11-24T02:10:27.363Z,94006.47
2022-11-24T02:13:31.116Z,94006.47
2022-11-24T02:16:36.819Z,94008.03
2022-11-24T02:19:48.798Z,94009.44
2022-11-24T02:22:57.237Z,94007.56
2022-11-24T02:26:08.224Z,94015.53
2022-11-24T02:29:14.246Z,94011.81
2022-11-24T02:32:17.724Z,94015.25
2022-11-24T02:35:21.144Z,94016.31
2022-11-24T02:38:32.425Z,94015.53
2022-11-24T02:41:35.645Z,94014.75
2022-11-24T02:44:45.786Z,94018.97
2022-11-24T02:47:48.780Z,94013.66
2022-11-24T02:50:51.771Z,94022.47
2022-11-24T02:53:54.773Z,94027.78
2022-11-24T02:56:58.113Z,94014.75
2022-11-24T03:00:02.552Z,94021.19
2022-11-24T03:03:05.753Z,94014.75
2022-11-24T03:06:08.857Z,94016.66
2022-11-24T03:09:12.107Z,94020.88
2022-11-24T03:12:15.150Z,94025.41
2022-11-24T03:15:19.507Z,94023.88
2022-11-24T03:18:22.491Z,94021.97
2022-11-24T03:21:25.464Z,94029.19
2022-11-24T03:24:28.456Z,94036.06
2022-11-24T03:27:31.732Z,94037.94
2022-11-24T03:30:36.151Z,94034.50
2022-11-24T03:33:39.514Z,94047.50
2022-11-24T03:36:42.511Z,94044.84
2022-11-24T03:39:45.527Z,94045.94
2022-11-24T03:42:48.501Z,94057.38
2022-11-24T03:45:53.105Z,94056.59
2022-11-24T03:48:56.174Z,94055.03
2022-11-24T03:52:02.628Z,94064.56
2022-11-24T03:55:08.927Z,94066.47
2022-11-24T03:58:11.990Z,94072.56
2022-11-24T04:01:16.444Z,94077.09
2022-11-24T04:04:19.531Z,94077.88
2022-11-24T04:07:22.571Z,94077.44
2022-11-24T04:10:26.124Z,94085.88
2022-11-24T04:13:29.025Z,94084.00
2022-11-24T04:16:33.572Z,94084.78
2022-11-24T04:19:36.574Z,94094.63
2022-11-24T04:22:39.981Z,94087.13
2022-11-24T04:25:43.811Z,94096.34
2022-11-24T04:28:46.867Z,94096.34
2022-11-24T04:31:51.335Z,94100.13
2022-11-24T04:34:54.377Z,94109.22
2022-11-24T04:37:57.424Z,94113.75
2022-11-24T04:41:02.503Z,94107.31
2022-11-24T04:44:05.680Z,94110.78
2022-11-24T04:47:16.391Z,94110.31
2022-11-24T04:50:19.854Z,94111.66
2022-11-24T04:53:22.862Z,94117.97
2022-11-24T04:56:25.870Z,94117.19
2022-11-24T04:59:28.966Z,94119.38
2022-11-24T05:02:33.327Z,94119.09
2022-11-24T05:05:36.303Z,94116.22
2022-11-24T05:08:39.362Z,94126.09
2022-11-24T05:11:42.346Z,94134.31
2022-11-24T05:14:45.466Z,94120.38
2022-11-24T05:17:49.936Z,94122.41
2022-11-24T05:20:52.888Z,94135.06
2022-11-24T05:23:55.920Z,94136.84
2022-11-24T05:26:58.952Z,94129.78
2022-11-24T05:30:01.992Z,94138.53
2022-11-24T05:33:07.935Z,94137.75
2022-11-24T05:36:32.193Z,94135.09
2022-11-24T05:39:36.265Z,94136.53
2022-11-24T05:42:46.564Z,94141.84
2022-11-24T05:45:50.526Z,94150.97
2022-11-24T05:48:54.949Z,94153.94
2022-11-24T05:51:58.011Z,94149.41
2022-11-24T05:55:01.020Z,94148.28
2022-11-24T05:58:06.506Z,94151.28
2022-11-24T06:01:09.529Z,94149.72
2022-11-24T06:04:14.087Z,94156.16
2022-11-24T06:07:17.260Z,94159.16
2022-11-24T06:10:21.812Z,94164.94
2022-11-24T06:13:24.879Z,94167.91
2022-11-24T06:16:28.195Z,94166.69
2022-11-24T06:19:32.897Z,94164.81
2022-11-24T06:22:35.962Z,94170.13
2022-11-24T06:25:38.996Z,94176.22
2022-11-24T06:28:42.108Z,94169.03
2022-11-24T06:31:45.147Z,94180.13
2022-11-24T06:34:49.599Z,94185.44
2022-11-24T06:37:52.668Z,94192.00
2022-11-24T06:41:00.508Z,94195.44
2022-11-24T06:44:04.812Z,94203.88
2022-11-24T06:47:07.841Z,94206.78
2022-11-24T06:50:12.336Z,94224.13
2022-11-24T06:53:15.493Z,94225.75
2022-11-24T06:56:21.033Z,94226.53
2022-11-24T06:59:24.120Z,94230.72
2022-11-24T07:02:27.103Z,94233.09
2022-11-24T07:05:31.548Z,94242.53
2022-11-24T07:08:34.571Z,94243.81
2022-11-24T07:11:37.918Z,94240.72
2022-11-24T07:14:40.929Z,94240.72
2022-11-24T07:17:43.951Z,94244.44
2022-11-24T07:20:48.354Z,94264.19
2022-11-24T07:23:51.488Z,94258.88
2022-11-24T07:26:54.530Z,94268.75
2022-11-24T07:29:57.595Z,94269.53
2022-11-24T07:33:01.120Z,94269.81
2022-11-24T07:36:07.668Z,94275.16
2022-11-24T07:39:10.803Z,94275.16
2022-11-24T07:42:13.812Z,94280.47
2022-11-24T07:45:17.011Z,94286.91
2022-11-24T07:48:19.992Z,94281.91
2022-11-24T07:51:24.412Z,94281.28
2022-11-24T07:54:27.659Z,94294.28
2022-11-24T07:57:30.738Z,94299.13
2022-11-24T08:00:33.830Z,94304.44
2022-11-24T08:03:37.313Z,94306.31
2022-11-24T08:06:47.034Z,94307.91
2022-11-24T08:09:52.227Z,94313.25
2022-11-24T08:13:01.523Z,94322.31
2022-11-24T08:16:09.340Z,94326.41
2022-11-24T08:19:12.549Z,94322.31
2022-11-24T08:22:17.151Z,94327.19
2022-11-24T08:25:20.196Z,94337.66
2022-11-24T08:28:23.556Z,94334.22
2022-11-24T08:31:33.401Z,94352.88
2022-11-24T08:34:37.444Z,94347.88
2022-11-24T08:37:41.938Z,94361.47
2022-11-24T08:40:44.972Z,94358.34
2022-11-24T08:43:48.006Z,94361.00
2022-11-24T08:46:51.390Z,94367.44
2022-11-24T08:49:54.448Z,94368.53
2022-11-24T08:52:58.862Z,94382.97
2022-11-24T08:56:02.551Z,94376.53
2022-11-24T08:59:05.771Z,94382.97
2022-11-24T09:02:13.182Z,94382.50
2022-11-24T09:05:43.715Z,94382.97
2022-11-24T09:08:40.613Z,94379.53
2022-11-24T09:11:43.593Z,94390.97
2022-11-24T09:14:46.617Z,94397.84
2022-11-24T09:17:49.791Z,94400.50
2022-11-24T09:20:52.878Z,94395.19
2022-11-24T09:23:57.372Z,94395.97
2022-11-24T09:27:00.644Z,94391.41
2022-11-24T09:30:03.918Z,94394.84
2022-11-24T09:33:07.026Z,94402.84
2022-11-24T09:36:10.527Z,94394.84
2022-11-24T09:39:14.928Z,94404.41
2022-11-24T09:42:25.729Z,94394.06
2022-11-24T09:46:05.123Z,94394.84
2022-11-24T09:49:15.386Z,94400.66
2022-11-24T09:52:25.949Z,94408.94
2022-11-24T09:55:36.460Z,94413.19
2022-11-24T09:58:45.967Z,94408.94
2022-11-24T10:01:49.998Z,94408.63
2022-11-24T10:04:54.875Z,94414.75
2022-11-24T10:08:15.682Z,94429.16
2022-11-24T10:11:33.008Z,94425.72
2022-11-24T10:15:18.888Z,94418.81
2022-11-24T10:18:38.679Z,94417.72
2022-11-24T10:22:04.947Z,94423.06
2022-11-24T10:25:19.955Z,94427.28
2022-11-24T10:28:30.934Z,94421.50
2022-11-24T10:31:36.556Z,94423.06
2022-11-24T10:34:44.453Z,94429.16
2022-11-24T10:38:00.210Z,94425.41
2022-11-24T10:41:08.798Z,94425.72
2022-11-24T10:44:15.723Z,94425.41
2022-11-24T10:47:22.770Z,94439.81
2022-11-24T10:50:28.118Z,94421.94
2022-11-24T10:53:32.555Z,94427.59
2022-11-24T10:56:41.432Z,94425.72
2022-11-24T10:59:45.919Z,94420.72
2022-11-24T11:02:50.226Z,94422.28
2022-11-24T11:05:57.038Z,94427.59
2022-11-24T11:09:19.418Z,94421.50
2022-11-24T11:15:49.004Z,94417.25
2022-11-24T11:18:52.422Z,94424.16
2022-11-24T11:22:02.781Z,94420.72
2022-11-24T11:25:19.588Z,94429.47
2022-11-24T11:28:30.171Z,94432.16
2022-11-24T11:31:35.495Z,94432.16
2022-11-24T11:34:38.668Z,94432.16
2022-11-24T11:37:42.402Z,94432.16
2022-11-24T11:40:45.702Z,94433.25
2022-11-24T11:43:54.680Z,94426.34
2022-11-24T11:47:00.724Z,94434.34
2022-11-24T11:50:04.279Z,94432.16
2022-11-24T11:53:19.215Z,94434.66
2022-11-24T11:56:27.302Z,94427.13
2022-11-24T12:00:05.633Z,94443.44
2022-11-24T12:03:50.040Z,94439.66
2022-11-24T12:07:18.747Z,94447.19
2022-11-24T12:10:32.552Z,94462.06
2022-11-24T12:13:48.577Z,94459.41
2022-11-24T12:17:02.698Z,94463.97
2022-11-24T12:20:20.244Z,94463.19
2022-11-24T12:23:32.525Z,94459.41
2022-11-24T12:26:42.550Z,94465.84
2022-11-24T12:30:11.900Z,94466.63
2022-11-24T12:33:37.067Z,94466.31
2022-11-24T12:37:04.665Z,94471.63
2022-11-24T12:40:16.391Z,94474.63
2022-11-24T12:43:25.515Z,94478.06
2022-11-24T12:46:38.136Z,94465.38
2022-11-24T12:49:51.639Z,94478.84
2022-11-24T12:53:00.798Z,94474.63
2022-11-24T12:56:11.352Z,94480.72
2022-11-24T12:59:26.271Z,94477.28
2022-11-24T13:02:45.231Z,94470.06
2022-11-24T13:05:55.019Z,94470.06
2022-11-24T13:08:58.196Z,94471.16
2022-11-24T13:12:13.447Z,94476.50
2022-11-24T13:15:43.362Z,94474.94
2022-11-24T13:18:46.875Z,94487.31
2022-11-24T13:22:01.239Z,94481.03
2022-11-24T13:25:20.416Z,94472.13
2022-11-24T13:29:08.861Z,94476.97
2022-11-24T13:32:52.656Z,94477.09
2022-11-24T13:36:29.857Z,94484.75
2022-11-24T13:39:50.832Z,94485.25
2022-11-24T13:43:21.690Z,94486.81
2022-11-24T13:46:56.643Z,94491.38
2022-11-24T13:50:07.544Z,94497.47
2022-11-24T13:53:16.343Z,94491.06
2022-11-24T13:56:26.361Z,94492.97
2022-11-24T13:59:35.959Z,94483.88
2022-11-24T14:02:39.084Z,94495.31
2022-11-24T14:05:49.279Z,94501.09
2022-11-24T14:08:53.568Z,94510.19
2022-11-24T14:12:07.343Z,94512.84
2022-11-24T14:15:24.245Z,94522.41
2022-11-24T14:18:29.189Z,94521.63
2022-11-24T14:21:37.547Z,94528.84
2022-11-24T14:24:43.616Z,94527.28
2022-11-24T14:27:47.279Z,94535.25
2022-11-24T14:30:50.359Z,94524.59
2022-11-24T14:34:14.152Z,94522.25
2022-11-24T14:37:18.854Z,94526.13
2022-11-24T14:40:42.300Z,94529.59
2022-11-24T14:43:45.503Z,94523.94
2022-11-24T14:46:49.341Z,94522.06
2022-11-24T14:49:53.585Z,94518.00
2022-11-24T14:52:59.344Z,94524.13
2022-11-24T14:56:10.297Z,94523.34
2022-11-24T14:59:23.487Z,94521.91
2022-11-24T15:02:43.432Z,94527.25
2022-11-24T15:05:55.088Z,94532.09
2022-11-24T15:08:59.655Z,94541.19
2022-11-24T15:12:07.905Z,94544.31
2022-11-24T15:15:20.730Z,94540.88
2022-11-24T15:18:28.014Z,94553.72
2022-11-24T15:21:32.742Z,94555.59
2022-11-24T15:24:50.514Z,94556.69
2022-11-24T15:27:53.538Z,94549.81
2022-11-24T15:31:00.721Z,94565.00
2022-11-24T15:34:06.722Z,94582.09
2022-11-24T15:37:10.079Z,94580.53
2022-11-24T15:40:16.204Z,94573.63
2022-11-24T15:43:23.911Z,94580.53
2022-11-24T15:46:27.983Z,94577.06
2022-11-24T15:49:31.147Z,94574.69
2022-11-24T15:52:34.296Z,94581.31
2022-11-24T15:55:38.844Z,94583.66
2022-11-24T15:58:42.016Z,94581.63
2022-11-24T16:01:46.353Z,94590.84
2022-11-24T16:04:49.440Z,94581.31
2022-11-24T16:07:52.563Z,94590.69
2022-11-24T16:10:57.253Z,94595.72
2022-11-24T16:14:00.377Z,94592.28
2022-11-24T16:17:04.008Z,94588.34
2022-11-24T16:20:08.633Z,94596.31
2022-11-24T16:23:11.843Z,94586.44
2022-11-24T16:26:16.309Z,94581.44
2022-11-24T16:29:20.986Z,94593.97
2022-11-24T16:32:24.053Z,94607.00
2022-11-24T16:35:27.085Z,94610.13
2022-11-24T16:38:30.168Z,94609.16
2022-11-24T16:41:34.612Z,94606.66
2022-11-24T16:44:37.780Z,94607.91
2022-11-24T16:47:42.106Z,94617.16
2022-11-24T16:50:45.151Z,94609.97
2022-11-24T16:53:48.720Z,94611.38
2022-11-24T16:56:53.329Z,94608.25
2022-11-24T16:59:56.395Z,94605.88
2022-11-24T17:02:59.434Z,94605.09
2022-11-24T17:06:02.489Z,94606.97
2022-11-24T17:09:05.854Z,94597.88
2022-11-24T17:12:10.342Z,94602.75
2022-11-24T17:18:37.615Z,94602.75
2022-11-24T17:21:40.675Z,94596.63
2022-11-24T17:24:43.740Z,94604.16
2022-11-24T17:27:48.223Z,94604.16
2022-11-24T17:30:51.316Z,94611.84
2022-11-24T17:33:56.048Z,94603.38
2022-11-24T17:36:59.055Z,94605.25
2022-11-24T17:40:26.921Z,94613.72
2022-11-24T17:43:27.508Z,94599.63
2022-11-24T17:46:31.621Z,94611.03
2022-11-24T17:49:34.705Z,94609.63
2022-11-24T17:52:37.769Z,94601.03
2022-11-24T17:55:40.973Z,94608.06
2022-11-24T17:58:45.836Z,94614.84
2022-11-24T18:01:50.978Z,94608.72
2022-11-24T18:04:54.099Z,94607.94
2022-11-24T18:07:57.175Z,94597.63
2022-11-24T18:11:05.090Z,94604.97
2022-11-24T18:14:10.911Z,94607.66
2022-11-24T18:17:13.983Z,94598.69
2022-11-24T18:20:17.262Z,94615.47
2022-11-24T18:23:20.392Z,94617.03
2022-11-24T18:26:23.460Z,94612.94
2022-11-24T18:29:27.925Z,94604.31
2022-11-24T18:32:30.991Z,94622.69
2022-11-24T18:35:34.029Z,94607.75
2022-11-24T18:38:37.783Z,94620.63
2022-11-24T18:41:41.106Z,94608.56
2022-11-24T18:44:49.719Z,94618.44
2022-11-24T18:47:55.655Z,94610.91
2022-11-24T18:50:58.731Z,94614.84
2022-11-24T18:54:03.096Z,94617.97
2022-11-24T18:57:06.194Z,94615.47
2022-11-24T19:00:12.164Z,94618.13
2022-11-24T19:03:15.164Z,94624.25
2022-11-24T19:06:21.058Z,94623.63
2022-11-24T19:09:25.567Z,94614.06
2022-11-24T19:12:28.807Z,94625.50
2022-11-24T19:15:35.312Z,94627.38
2022-11-24T19:18:38.352Z,94622.50
2022-11-24T19:21:41.770Z,94627.38
2022-11-24T19:24:46.645Z,94625.34
2022-11-24T19:27:49.701Z,94636.16
2022-11-24T19:30:54.094Z,94626.91
2022-11-24T19:33:58.810Z,94633.47
2022-11-24T19:37:01.977Z,94647.72
2022-11-24T19:40:05.560Z,94643.19
2022-11-24T19:43:08.605Z,94646.66
2022-11-24T19:46:15.118Z,94652.00
2022-11-24T19:49:18.175Z,94656.50
2022-11-24T19:52:21.464Z,94661.56
2022-11-24T19:55:24.525Z,94661.06
2022-11-24T19:58:27.591Z,94656.81
2022-11-24T20:01:33.849Z,94663.72
2022-11-24T20:04:39.824Z,94661.38
2022-11-24T20:07:42.976Z,94676.25
2022-11-24T20:10:45.972Z,94678.91
2022-11-24T20:13:50.207Z,94679.69
2022-11-24T20:16:54.675Z,94680.81
2022-11-24T20:19:57.714Z,94688.50
2022-11-24T20:23:00.736Z,94684.72
2022-11-24T20:26:05.454Z,94684.09
2022-11-24T20:29:09.964Z,94683.78
2022-11-24T20:32:19.656Z,94691.47
2022-11-24T20:35:22.677Z,94682.69
2022-11-24T20:38:25.748Z,94680.03
2022-11-24T20:41:30.912Z,94678.91
2022-11-24T20:44:34.229Z,94693.03
2022-11-24T20:47:38.946Z,94695.69
2022-11-24T20:50:45.723Z,94691.47
2022-11-24T20:53:51.903Z,94688.78
2022-11-24T20:56:55.265Z,94695.69
2022-11-24T20:59:58.279Z,94696.47
2022-11-24T21:03:02.702Z,94698.84
2022-11-24T21:06:05.966Z,94706.19
2022-11-24T21:09:10.072Z,94709.81
2022-11-24T21:12:13.081Z,94700.09
2022-11-24T21:15:16.131Z,94711.06
2022-11-24T21:18:21.374Z,94707.13
2022-11-24T21:21:26.635Z,94720.75
2022-11-24T21:24:30.994Z,94712.75
2022-11-24T21:27:33.963Z,94709.28
2022-11-24T21:30:38.070Z,94714.91
2022-11-24T21:33:44.968Z,94716.81
2022-11-24T21:36:48.429Z,94724.00
2022-11-24T21:39:51.428Z,94714.44
2022-11-24T21:42:54.495Z,94714.44
2022-11-24T21:46:01.821Z,94711.00
2022-11-24T21:49:06.525Z,94712.09
2022-11-24T21:52:09.571Z,94723.53
2022-11-24T21:55:12.571Z,94721.19
2022-11-24T21:58:15.598Z,94723.06
2022-11-24T22:01:20.358Z,94725.72
2022-11-24T22:04:24.845Z,94716.66
2022-11-24T22:07:32.146Z,94712.41
2022-11-24T22:10:35.206Z,94715.09
2022-11-24T22:13:38.410Z,94707.88
2022-11-24T22:16:41.462Z,94708.19
2022-11-24T22:19:45.973Z,94708.19
2022-11-24T22:22:48.953Z,94713.50
2022-11-24T22:25:51.928Z,94711.63
2022-11-24T22:28:56.446Z,94710.84
2022-11-24T22:31:59.500Z,94721.50
2022-11-24T22:35:04.057Z,94730.91
2022-11-24T22:38:07.155Z,94724.47
2022-11-24T22:41:11.962Z,94729.03
2022-11-24T22:44:15.028Z,94730.91
2022-11-24T22:47:18.103Z,94730.91
2022-11-24T22:50:22.603Z,94730.91
2022-11-24T22:53:25.576Z,94742.34
2022-11-24T22:56:29.766Z,94735.44
2022-11-24T22:59:32.802Z,94733.25
2022-11-24T23:02:35.835Z,94740.47
2022-11-24T23:05:40.297Z,94741.56
2022-11-24T23:08:43.651Z,94751.44
2022-11-24T23:11:46.691Z,94751.44
2022-11-24T23:14:49.771Z,94759.72
2022-11-24T23:17:52.800Z,94764.28
2022-11-24T23:20:57.230Z,94767.41
2022-11-24T23:24:02.107Z,94763.97
2022-11-24T23:27:05.838Z,94762.06
2022-11-24T23:30:09.839Z,94771.16
2022-11-24T23:33:12.885Z,94781.03
2022-11-24T23:36:19.745Z,94774.91
2022-11-24T23:39:22.691Z,94772.25
2022-11-24T23:42:25.745Z,94770.69
2022-11-24T23:45:28.928Z,94780.25
2022-11-24T23:48:32.016Z,94773.03
2022-11-24T23:51:36.665Z,94776.03
2022-11-24T23:54:39.707Z,94774.41
2022-11-24T23:57:42.719Z,94780.06
